LOG OUT

METAR

Geçti─čimiz hafta ─░stanbul’da 2 gün yo─čun kar ya─č─▒┼č─▒ oldu. Bu süre zarf─▒nda ald─▒─č─▒m METAR’─▒ a┼ča─č─▒da payla┼č─▒yorum. Kaptan olarak siz bu hava durumunu ald─▒ktan sonra, Pegasus Hava Yollar─▒ kurallar─▒n─▒ dikkate alarak, Sabiha Gökçen hava liman─▒ndan kalk─▒┼č veya ayn─▒ hava liman─▒na ini┼č yaparm─▒yd─▒n─▒z ? 
 
LTFJ 180750Z 03015KT 0500 R06/0500D R24/300N +SHSN SCT008 BKN026 M01/M02 Q1028 R064///24

CEVAPLANDI



[ more.. ]


Page :  1